sensor_id;sensor_type;location;lat;lon;timestamp;pressure;altitude;pressure_sealevel;temperature;humidity
31062;BME280;17724;53.546;9.974;2024-02-23T00:02:41;97813.19;;;11.34;68.93
31062;BME280;17724;53.546;9.974;2024-02-23T00:06:41;97827.47;;;11.28;68.88
31062;BME280;17724;53.546;9.974;2024-02-23T00:10:42;97859.69;;;11.48;70.90
31062;BME280;17724;53.546;9.974;2024-02-23T00:14:42;97847.16;;;11.18;72.63
31062;BME280;17724;53.546;9.974;2024-02-23T00:18:43;97883.44;;;11.32;74.77
31062;BME280;17724;53.546;9.974;2024-02-23T00:22:43;97873.50;;;11.19;75.05
31062;BME280;17724;53.546;9.974;2024-02-23T00:26:44;97862.03;;;11.17;72.43
31062;BME280;17724;53.546;9.974;2024-02-23T00:30:45;97900.94;;;11.27;72.43
31062;BME280;17724;53.546;9.974;2024-02-23T00:34:45;97900.28;;;11.01;68.10
31062;BME280;17724;53.546;9.974;2024-02-23T00:38:46;97891.00;;;11.14;68.91
31062;BME280;17724;53.546;9.974;2024-02-23T00:42:47;97903.63;;;11.15;68.98
31062;BME280;17724;53.546;9.974;2024-02-23T00:46:47;97921.31;;;11.05;69.24
31062;BME280;17724;53.546;9.974;2024-02-23T00:50:48;97965.09;;;10.72;73.16
31062;BME280;17724;53.546;9.974;2024-02-23T00:54:48;98003.44;;;9.56;91.03
31062;BME280;17724;53.546;9.974;2024-02-23T00:58:49;97988.34;;;9.19;94.42
31062;BME280;17724;53.546;9.974;2024-02-23T01:02:49;98012.53;;;8.85;95.61
31062;BME280;17724;53.546;9.974;2024-02-23T01:06:50;98024.56;;;8.98;95.58
31062;BME280;17724;53.546;9.974;2024-02-23T01:10:50;98055.31;;;8.95;95.97
31062;BME280;17724;53.546;9.974;2024-02-23T01:14:51;98056.72;;;8.84;94.81
31062;BME280;17724;53.546;9.974;2024-02-23T01:18:51;98089.06;;;9.04;94.74
31062;BME280;17724;53.546;9.974;2024-02-23T01:22:52;98075.81;;;8.98;93.49
31062;BME280;17724;53.546;9.974;2024-02-23T01:26:53;98098.44;;;8.81;93.15
31062;BME280;17724;53.546;9.974;2024-02-23T01:30:55;98128.56;;;9.03;93.01
31062;BME280;17724;53.546;9.974;2024-02-23T01:34:55;98134.66;;;9.00;93.01
31062;BME280;17724;53.546;9.974;2024-02-23T01:38:56;98147.66;;;9.17;92.63
31062;BME280;17724;53.546;9.974;2024-02-23T01:43:05;98166.56;;;9.19;92.24
31062;BME280;17724;53.546;9.974;2024-02-23T01:47:06;98199.31;;;9.24;90.47
31062;BME280;17724;53.546;9.974;2024-02-23T01:51:06;98206.88;;;9.18;90.80
31062;BME280;17724;53.546;9.974;2024-02-23T01:55:07;98207.44;;;9.06;90.54
31062;BME280;17724;53.546;9.974;2024-02-23T01:59:10;98234.47;;;8.99;88.79
31062;BME280;17724;53.546;9.974;2024-02-23T02:03:11;98265.38;;;8.91;87.19
31062;BME280;17724;53.546;9.974;2024-02-23T02:07:12;98274.13;;;8.66;86.59
31062;BME280;17724;53.546;9.974;2024-02-23T02:11:12;98295.88;;;8.62;86.39
31062;BME280;17724;53.546;9.974;2024-02-23T02:15:13;98321.63;;;8.61;85.58
31062;BME280;17724;53.546;9.974;2024-02-23T02:19:14;98341.72;;;8.70;87.23
31062;BME280;17724;53.546;9.974;2024-02-23T02:23:14;98349.03;;;8.47;86.64
31062;BME280;17724;53.546;9.974;2024-02-23T02:27:15;98353.13;;;8.50;88.26
31062;BME280;17724;53.546;9.974;2024-02-23T02:31:16;98394.31;;;8.26;90.35
31062;BME280;17724;53.546;9.974;2024-02-23T02:35:16;98382.81;;;8.43;92.24
31062;BME280;17724;53.546;9.974;2024-02-23T02:39:17;98367.97;;;8.30;91.19
31062;BME280;17724;53.546;9.974;2024-02-23T02:43:18;98408.84;;;8.26;91.05
31062;BME280;17724;53.546;9.974;2024-02-23T02:47:18;98411.97;;;8.20;93.04
31062;BME280;17724;53.546;9.974;2024-02-23T02:51:19;98427.16;;;8.26;91.92
31062;BME280;17724;53.546;9.974;2024-02-23T02:55:20;98419.47;;;8.28;92.21
31062;BME280;17724;53.546;9.974;2024-02-23T02:59:20;98437.94;;;8.22;91.63
31062;BME280;17724;53.546;9.974;2024-02-23T03:03:21;98462.03;;;8.20;91.24
31062;BME280;17724;53.546;9.974;2024-02-23T03:07:22;98468.97;;;7.99;90.62
31062;BME280;17724;53.546;9.974;2024-02-23T03:11:23;98472.97;;;7.87;91.49
31062;BME280;17724;53.546;9.974;2024-02-23T03:15:23;98472.22;;;8.01;90.61
31062;BME280;17724;53.546;9.974;2024-02-23T03:19:24;98494.78;;;7.93;89.32
31062;BME280;17724;53.546;9.974;2024-02-23T03:23:26;98500.13;;;8.03;89.04
31062;BME280;17724;53.546;9.974;2024-02-23T03:27:29;98521.16;;;8.21;88.55
31062;BME280;17724;53.546;9.974;2024-02-23T03:31:30;98530.50;;;8.01;87.89
31062;BME280;17724;53.546;9.974;2024-02-23T03:35:30;98552.03;;;7.89;88.23
31062;BME280;17724;53.546;9.974;2024-02-23T03:39:31;98543.31;;;7.87;88.29
31062;BME280;17724;53.546;9.974;2024-02-23T03:43:33;98545.69;;;7.75;89.93
31062;BME280;17724;53.546;9.974;2024-02-23T03:47:34;98555.97;;;7.83;89.30
31062;BME280;17724;53.546;9.974;2024-02-23T03:51:35;98562.09;;;7.75;89.58
31062;BME280;17724;53.546;9.974;2024-02-23T03:55:39;98558.47;;;7.79;88.97
31062;BME280;17724;53.546;9.974;2024-02-23T03:59:39;98578.81;;;7.92;88.11
31062;BME280;17724;53.546;9.974;2024-02-23T04:03:41;98588.69;;;7.69;87.13
31062;BME280;17724;53.546;9.974;2024-02-23T04:07:42;98593.34;;;7.69;86.83
31062;BME280;17724;53.546;9.974;2024-02-23T04:11:42;98611.28;;;7.56;85.79
31062;BME280;17724;53.546;9.974;2024-02-23T04:15:43;98599.25;;;7.57;86.71
31062;BME280;17724;53.546;9.974;2024-02-23T04:19:44;98605.72;;;7.66;87.41
31062;BME280;17724;53.546;9.974;2024-02-23T04:23:44;98641.53;;;7.64;86.98
31062;BME280;17724;53.546;9.974;2024-02-23T04:27:45;98625.72;;;7.61;87.08
31062;BME280;17724;53.546;9.974;2024-02-23T04:31:46;98617.50;;;7.61;86.64
31062;BME280;17724;53.546;9.974;2024-02-23T04:35:46;98649.88;;;7.78;86.68
31062;BME280;17724;53.546;9.974;2024-02-23T04:39:46;98646.91;;;7.75;86.93
31062;BME280;17724;53.546;9.974;2024-02-23T04:43:47;98651.03;;;7.72;86.81
31062;BME280;17724;53.546;9.974;2024-02-23T04:47:48;98652.97;;;7.72;87.54
31062;BME280;17724;53.546;9.974;2024-02-23T04:51:48;98661.66;;;7.50;87.34
31062;BME280;17724;53.546;9.974;2024-02-23T04:55:49;98675.66;;;7.48;87.36
31062;BME280;17724;53.546;9.974;2024-02-23T04:59:49;98695.63;;;7.73;88.26
31062;BME280;17724;53.546;9.974;2024-02-23T05:03:50;98689.72;;;7.60;87.53
31062;BME280;17724;53.546;9.974;2024-02-23T05:07:50;98700.28;;;7.72;87.75
31062;BME280;17724;53.546;9.974;2024-02-23T05:11:51;98714.94;;;7.57;88.05
31062;BME280;17724;53.546;9.974;2024-02-23T05:15:51;98710.00;;;7.59;87.92
31062;BME280;17724;53.546;9.974;2024-02-23T05:19:52;98698.34;;;7.49;87.11
31062;BME280;17724;53.546;9.974;2024-02-23T05:23:52;98722.22;;;7.67;86.92
31062;BME280;17724;53.546;9.974;2024-02-23T05:27:53;98719.34;;;7.53;86.68
31062;BME280;17724;53.546;9.974;2024-02-23T05:31:54;98725.06;;;7.57;85.60
31062;BME280;17724;53.546;9.974;2024-02-23T05:35:54;98729.28;;;7.44;86.15
31062;BME280;17724;53.546;9.974;2024-02-23T05:39:55;98756.59;;;7.49;86.09
31062;BME280;17724;53.546;9.974;2024-02-23T05:43:55;98746.06;;;7.61;85.78
31062;BME280;17724;53.546;9.974;2024-02-23T05:47:56;98747.25;;;7.55;85.33
31062;BME280;17724;53.546;9.974;2024-02-23T05:51:56;98746.19;;;7.51;84.92
31062;BME280;17724;53.546;9.974;2024-02-23T05:55:57;98761.25;;;7.49;85.00
31062;BME280;17724;53.546;9.974;2024-02-23T05:59:58;98774.53;;;7.60;84.85
31062;BME280;17724;53.546;9.974;2024-02-23T06:03:58;98789.06;;;7.56;84.18
31062;BME280;17724;53.546;9.974;2024-02-23T06:07:59;98797.34;;;7.46;83.86
31062;BME280;17724;53.546;9.974;2024-02-23T06:12:00;98811.47;;;7.58;83.44
31062;BME280;17724;53.546;9.974;2024-02-23T06:16:00;98807.22;;;7.47;82.66
31062;BME280;17724;53.546;9.974;2024-02-23T06:20:01;98818.16;;;7.47;83.37
31062;BME280;17724;53.546;9.974;2024-02-23T06:24:01;98850.16;;;7.46;83.33
31062;BME280;17724;53.546;9.974;2024-02-23T06:28:03;98850.44;;;7.45;83.04
31062;BME280;17724;53.546;9.974;2024-02-23T06:32:03;98863.59;;;7.43;82.98
31062;BME280;17724;53.546;9.974;2024-02-23T06:36:04;98856.41;;;7.52;83.22
31062;BME280;17724;53.546;9.974;2024-02-23T06:40:05;98885.91;;;7.55;82.79
31062;BME280;17724;53.546;9.974;2024-02-23T06:44:07;98872.56;;;7.48;82.86
31062;BME280;17724;53.546;9.974;2024-02-23T06:48:08;98887.25;;;7.57;82.86
31062;BME280;17724;53.546;9.974;2024-02-23T06:52:09;98896.66;;;7.46;83.15
31062;BME280;17724;53.546;9.974;2024-02-23T06:56:10;98917.63;;;7.56;83.33
31062;BME280;17724;53.546;9.974;2024-02-23T07:00:10;98914.47;;;7.38;84.04
31062;BME280;17724;53.546;9.974;2024-02-23T07:04:11;98934.59;;;7.53;84.30
31062;BME280;17724;53.546;9.974;2024-02-23T07:08:12;98946.22;;;7.34;84.81
31062;BME280;17724;53.546;9.974;2024-02-23T07:12:12;98947.16;;;7.54;84.00
31062;BME280;17724;53.546;9.974;2024-02-23T07:16:13;98940.22;;;7.72;84.01
31062;BME280;17724;53.546;9.974;2024-02-23T07:20:14;98939.94;;;7.29;84.63
31062;BME280;17724;53.546;9.974;2024-02-23T07:24:15;98958.91;;;7.59;84.66
31062;BME280;17724;53.546;9.974;2024-02-23T07:28:15;98973.91;;;7.67;83.97
31062;BME280;17724;53.546;9.974;2024-02-23T07:32:18;98976.59;;;7.72;84.21
31062;BME280;17724;53.546;9.974;2024-02-23T07:36:19;98977.66;;;7.76;84.00
31062;BME280;17724;53.546;9.974;2024-02-23T07:40:19;98973.63;;;7.69;83.44
31062;BME280;17724;53.546;9.974;2024-02-23T07:44:20;98985.94;;;8.05;83.58
31062;BME280;17724;53.546;9.974;2024-02-23T07:48:20;98987.00;;;8.09;82.99
31062;BME280;17724;53.546;9.974;2024-02-23T07:52:21;98992.72;;;8.13;82.73
31062;BME280;17724;53.546;9.974;2024-02-23T07:56:24;98989.56;;;7.96;81.99
31062;BME280;17724;53.546;9.974;2024-02-23T08:00:24;98991.09;;;8.12;80.76
31062;BME280;17724;53.546;9.974;2024-02-23T08:04:25;99011.34;;;8.11;80.06
31062;BME280;17724;53.546;9.974;2024-02-23T08:08:25;99004.34;;;8.29;79.04
31062;BME280;17724;53.546;9.974;2024-02-23T08:12:27;99009.88;;;8.24;78.38
31062;BME280;17724;53.546;9.974;2024-02-23T08:16:28;99013.25;;;8.15;78.13
31062;BME280;17724;53.546;9.974;2024-02-23T08:20:29;99023.56;;;8.24;78.03
31062;BME280;17724;53.546;9.974;2024-02-23T08:24:29;99030.53;;;8.11;76.90
31062;BME280;17724;53.546;9.974;2024-02-23T08:28:30;99037.13;;;8.44;76.96
31062;BME280;17724;53.546;9.974;2024-02-23T08:32:30;99045.34;;;8.44;75.58
31062;BME280;17724;53.546;9.974;2024-02-23T08:36:31;99062.34;;;8.41;75.40
31062;BME280;17724;53.546;9.974;2024-02-23T08:40:31;99072.91;;;8.58;74.85
31062;BME280;17724;53.546;9.974;2024-02-23T08:44:31;99068.63;;;8.47;74.43
31062;BME280;17724;53.546;9.974;2024-02-23T08:48:32;99076.53;;;8.77;72.98
31062;BME280;17724;53.546;9.974;2024-02-23T08:52:32;99083.44;;;8.75;72.92
31062;BME280;17724;53.546;9.974;2024-02-23T08:56:39;99054.44;;;8.69;72.01
31062;BME280;17724;53.546;9.974;2024-02-23T09:00:42;99096.50;;;8.83;71.68
31062;BME280;17724;53.546;9.974;2024-02-23T09:04:42;99093.41;;;8.89;70.25
31062;BME280;17724;53.546;9.974;2024-02-23T09:08:45;99110.94;;;9.23;69.75
31062;BME280;17724;53.546;9.974;2024-02-23T09:12:45;99116.16;;;9.19;69.75
31062;BME280;17724;53.546;9.974;2024-02-23T09:16:46;99122.81;;;9.13;69.43
31062;BME280;17724;53.546;9.974;2024-02-23T09:20:48;99129.16;;;9.08;69.83
31062;BME280;17724;53.546;9.974;2024-02-23T09:24:48;99115.03;;;8.96;70.67
31062;BME280;17724;53.546;9.974;2024-02-23T09:28:49;99134.19;;;9.25;69.53
31062;BME280;17724;53.546;9.974;2024-02-23T09:32:50;99136.72;;;9.22;69.44
31062;BME280;17724;53.546;9.974;2024-02-23T09:36:50;99151.09;;;9.08;68.43
31062;BME280;17724;53.546;9.974;2024-02-23T09:40:51;99152.81;;;9.28;68.66
31062;BME280;17724;53.546;9.974;2024-02-23T09:44:58;99159.09;;;9.34;67.59
31062;BME280;17724;53.546;9.974;2024-02-23T09:49:00;99170.72;;;9.50;66.96
31062;BME280;17724;53.546;9.974;2024-02-23T09:53:01;99168.03;;;9.16;66.38
31062;BME280;17724;53.546;9.974;2024-02-23T09:57:06;99189.50;;;9.37;67.64
31062;BME280;17724;53.546;9.974;2024-02-23T10:01:07;99200.94;;;9.45;67.14
31062;BME280;17724;53.546;9.974;2024-02-23T10:05:11;99200.72;;;9.65;65.73
31062;BME280;17724;53.546;9.974;2024-02-23T10:09:17;99209.72;;;9.71;65.40
31062;BME280;17724;53.546;9.974;2024-02-23T10:13:19;99208.84;;;9.99;65.11
31062;BME280;17724;53.546;9.974;2024-02-23T10:17:20;99228.53;;;9.82;63.79
31062;BME280;17724;53.546;9.974;2024-02-23T10:21:21;99235.59;;;9.88;63.52
31062;BME280;17724;53.546;9.974;2024-02-23T10:25:22;99243.91;;;10.07;62.36
31062;BME280;17724;53.546;9.974;2024-02-23T10:29:23;99236.00;;;10.25;62.58
31062;BME280;17724;53.546;9.974;2024-02-23T10:33:24;99233.88;;;10.41;62.51
31062;BME280;17724;53.546;9.974;2024-02-23T10:37:24;99250.91;;;10.43;61.11
31062;BME280;17724;53.546;9.974;2024-02-23T10:41:26;99231.88;;;10.27;61.58
31062;BME280;17724;53.546;9.974;2024-02-23T10:45:27;99249.41;;;10.31;58.66
31062;BME280;17724;53.546;9.974;2024-02-23T10:49:29;99228.38;;;10.41;59.81
31062;BME280;17724;53.546;9.974;2024-02-23T10:53:30;99253.50;;;10.10;59.79
31062;BME280;17724;53.546;9.974;2024-02-23T10:57:31;99260.75;;;10.25;60.44
31062;BME280;17724;53.546;9.974;2024-02-23T11:01:36;99246.22;;;10.19;59.88
31062;BME280;17724;53.546;9.974;2024-02-23T11:05:39;99273.47;;;10.40;59.34
31062;BME280;17724;53.546;9.974;2024-02-23T11:09:40;99269.91;;;10.39;58.52
31062;BME280;17724;53.546;9.974;2024-02-23T11:13:44;99262.47;;;10.40;59.01
31062;BME280;17724;53.546;9.974;2024-02-23T11:17:49;99263.38;;;10.35;58.34
31062;BME280;17724;53.546;9.974;2024-02-23T11:21:52;99258.63;;;10.41;59.15
31062;BME280;17724;53.546;9.974;2024-02-23T11:30:08;99249.94;;;10.33;58.75
31062;BME280;17724;53.546;9.974;2024-02-23T11:34:09;99263.31;;;10.40;58.88
31062;BME280;17724;53.546;9.974;2024-02-23T11:38:10;99265.13;;;10.50;59.00
31062;BME280;17724;53.546;9.974;2024-02-23T11:42:11;99259.63;;;10.50;58.10
31062;BME280;17724;53.546;9.974;2024-02-23T11:46:12;99257.53;;;10.42;58.79
31062;BME280;17724;53.546;9.974;2024-02-23T11:50:13;99253.97;;;10.60;58.78
31062;BME280;17724;53.546;9.974;2024-02-23T11:54:15;99258.72;;;10.54;57.59
31062;BME280;17724;53.546;9.974;2024-02-23T11:58:16;99263.78;;;10.66;57.07
31062;BME280;17724;53.546;9.974;2024-02-23T12:02:17;99257.28;;;10.57;56.60
31062;BME280;17724;53.546;9.974;2024-02-23T12:06:17;99258.53;;;10.70;56.14
31062;BME280;17724;53.546;9.974;2024-02-23T12:10:17;99263.34;;;10.78;55.94
31062;BME280;17724;53.546;9.974;2024-02-23T12:14:18;99252.56;;;10.63;56.23
31062;BME280;17724;53.546;9.974;2024-02-23T12:18:22;99247.22;;;10.90;56.80
31062;BME280;17724;53.546;9.974;2024-02-23T12:22:24;99268.75;;;10.83;56.78
31062;BME280;17724;53.546;9.974;2024-02-23T12:26:25;99267.63;;;10.65;55.13
31062;BME280;17724;53.546;9.974;2024-02-23T12:30:26;99271.66;;;10.73;55.56
31062;BME280;17724;53.546;9.974;2024-02-23T12:34:29;99274.03;;;10.60;54.84
31062;BME280;17724;53.546;9.974;2024-02-23T12:38:29;99266.16;;;10.73;54.65
31062;BME280;17724;53.546;9.974;2024-02-23T12:42:29;99270.84;;;10.72;54.32
31062;BME280;17724;53.546;9.974;2024-02-23T12:46:30;99260.88;;;10.57;54.85
31062;BME280;17724;53.546;9.974;2024-02-23T12:50:30;99254.78;;;10.60;54.22
31062;BME280;17724;53.546;9.974;2024-02-23T12:54:32;99262.28;;;10.93;54.00
31062;BME280;17724;53.546;9.974;2024-02-23T12:58:34;99253.53;;;10.91;54.20
31062;BME280;17724;53.546;9.974;2024-02-23T13:02:35;99270.09;;;11.04;54.52
31062;BME280;17724;53.546;9.974;2024-02-23T13:06:42;99268.22;;;10.81;54.61
31062;BME280;17724;53.546;9.974;2024-02-23T13:10:43;99277.38;;;10.76;54.36
31062;BME280;17724;53.546;9.974;2024-02-23T13:14:44;99278.06;;;10.87;53.77
31062;BME280;17724;53.546;9.974;2024-02-23T13:18:44;99280.28;;;11.04;53.16
31062;BME280;17724;53.546;9.974;2024-02-23T13:22:46;99285.25;;;10.83;53.16
31062;BME280;17724;53.546;9.974;2024-02-23T13:26:47;99285.50;;;10.87;53.15
31062;BME280;17724;53.546;9.974;2024-02-23T13:30:47;99284.28;;;10.93;53.31
31062;BME280;17724;53.546;9.974;2024-02-23T13:34:48;99287.63;;;11.08;53.63
31062;BME280;17724;53.546;9.974;2024-02-23T13:38:52;99293.44;;;10.88;53.01
31062;BME280;17724;53.546;9.974;2024-02-23T13:42:55;99303.03;;;11.09;53.14
31062;BME280;17724;53.546;9.974;2024-02-23T13:46:56;99316.34;;;11.02;52.01
31062;BME280;17724;53.546;9.974;2024-02-23T13:50:56;99308.91;;;11.03;52.48
31062;BME280;17724;53.546;9.974;2024-02-23T13:54:57;99285.19;;;11.07;52.54
31062;BME280;17724;53.546;9.974;2024-02-23T13:58:57;99291.94;;;10.77;52.18
31062;BME280;17724;53.546;9.974;2024-02-23T14:02:58;99318.88;;;10.99;52.28
31062;BME280;17724;53.546;9.974;2024-02-23T14:06:58;99316.25;;;11.07;52.31
31062;BME280;17724;53.546;9.974;2024-02-23T14:10:59;99307.41;;;11.10;51.07
31062;BME280;17724;53.546;9.974;2024-02-23T14:15:00;99314.31;;;11.08;51.57
31062;BME280;17724;53.546;9.974;2024-02-23T14:19:01;99316.34;;;11.21;52.07
31062;BME280;17724;53.546;9.974;2024-02-23T14:23:02;99311.41;;;11.37;51.79
31062;BME280;17724;53.546;9.974;2024-02-23T14:27:02;99298.53;;;11.32;51.83
31062;BME280;17724;53.546;9.974;2024-02-23T14:31:03;99305.75;;;11.28;50.82
31062;BME280;17724;53.546;9.974;2024-02-23T14:35:04;99289.69;;;11.35;51.70
31062;BME280;17724;53.546;9.974;2024-02-23T14:39:04;99292.31;;;11.59;51.55
31062;BME280;17724;53.546;9.974;2024-02-23T14:43:05;99286.13;;;11.49;51.43
31062;BME280;17724;53.546;9.974;2024-02-23T14:47:06;99302.38;;;11.50;51.19
31062;BME280;17724;53.546;9.974;2024-02-23T14:51:06;99297.66;;;11.37;51.28
31062;BME280;17724;53.546;9.974;2024-02-23T14:55:08;99308.72;;;11.32;51.33
31062;BME280;17724;53.546;9.974;2024-02-23T14:59:11;99305.09;;;11.18;52.28
31062;BME280;17724;53.546;9.974;2024-02-23T15:03:12;99310.88;;;11.35;52.48
31062;BME280;17724;53.546;9.974;2024-02-23T15:07:13;99311.09;;;11.39;52.30
31062;BME280;17724;53.546;9.974;2024-02-23T15:11:14;99323.59;;;11.50;51.69
31062;BME280;17724;53.546;9.974;2024-02-23T15:15:14;99310.38;;;11.33;51.71
31062;BME280;17724;53.546;9.974;2024-02-23T15:19:16;99275.59;;;11.04;51.25
31062;BME280;17724;53.546;9.974;2024-02-23T15:23:16;99321.88;;;11.35;52.38
31062;BME280;17724;53.546;9.974;2024-02-23T15:27:18;99316.59;;;11.39;52.37
31062;BME280;17724;53.546;9.974;2024-02-23T15:31:18;99331.78;;;11.36;51.89
31062;BME280;17724;53.546;9.974;2024-02-23T15:35:19;99334.47;;;11.41;51.68
31062;BME280;17724;53.546;9.974;2024-02-23T15:39:19;99336.09;;;11.42;51.82
31062;BME280;17724;53.546;9.974;2024-02-23T15:43:20;99341.41;;;11.52;51.60
31062;BME280;17724;53.546;9.974;2024-02-23T15:47:22;99329.78;;;11.42;51.58
31062;BME280;17724;53.546;9.974;2024-02-23T15:51:23;99339.66;;;11.24;51.71
31062;BME280;17724;53.546;9.974;2024-02-23T15:55:23;99332.00;;;11.40;51.98
31062;BME280;17724;53.546;9.974;2024-02-23T15:59:24;99336.09;;;11.42;51.83
31062;BME280;17724;53.546;9.974;2024-02-23T16:03:24;99316.28;;;11.40;51.88
31062;BME280;17724;53.546;9.974;2024-02-23T16:07:25;99349.78;;;11.28;51.54
31062;BME280;17724;53.546;9.974;2024-02-23T16:11:25;99345.72;;;11.26;52.06
31062;BME280;17724;53.546;9.974;2024-02-23T16:15:27;99360.19;;;11.31;52.22
31062;BME280;17724;53.546;9.974;2024-02-23T16:19:28;99355.50;;;11.32;52.74
31062;BME280;17724;53.546;9.974;2024-02-23T16:23:29;99341.19;;;11.49;53.43
31062;BME280;17724;53.546;9.974;2024-02-23T16:27:29;99351.34;;;11.34;54.64
31062;BME280;17724;53.546;9.974;2024-02-23T16:31:30;99351.63;;;11.52;54.27
31062;BME280;17724;53.546;9.974;2024-02-23T16:35:30;99355.53;;;11.65;52.46
31062;BME280;17724;53.546;9.974;2024-02-23T16:39:31;99370.34;;;11.69;52.73
31062;BME280;17724;53.546;9.974;2024-02-23T16:43:31;99372.28;;;11.68;52.57
31062;BME280;17724;53.546;9.974;2024-02-23T16:47:33;99385.00;;;11.64;51.71
31062;BME280;17724;53.546;9.974;2024-02-23T16:51:34;99388.28;;;11.66;52.31
31062;BME280;17724;53.546;9.974;2024-02-23T16:55:34;99391.34;;;11.83;53.12
31062;BME280;17724;53.546;9.974;2024-02-23T16:59:35;99395.19;;;11.82;52.60
31062;BME280;17724;53.546;9.974;2024-02-23T17:03:35;99419.66;;;12.03;53.04
31062;BME280;17724;53.546;9.974;2024-02-23T17:07:36;99440.75;;;11.94;56.84
31062;BME280;17724;53.546;9.974;2024-02-23T17:11:37;99445.31;;;11.66;59.51
31062;BME280;17724;53.546;9.974;2024-02-23T17:15:38;99455.63;;;10.11;73.83
31062;BME280;17724;53.546;9.974;2024-02-23T17:19:39;99454.19;;;10.19;79.11
31062;BME280;17724;53.546;9.974;2024-02-23T17:23:40;99445.78;;;10.05;79.85
31062;BME280;17724;53.546;9.974;2024-02-23T17:27:41;99456.88;;;9.95;79.10
31062;BME280;17724;53.546;9.974;2024-02-23T17:31:42;99458.44;;;10.06;80.92
31062;BME280;17724;53.546;9.974;2024-02-23T17:35:43;99449.38;;;10.05;82.17
31062;BME280;17724;53.546;9.974;2024-02-23T17:39:43;99456.94;;;10.19;81.33
31062;BME280;17724;53.546;9.974;2024-02-23T17:43:44;99449.47;;;10.24;81.76
31062;BME280;17724;53.546;9.974;2024-02-23T17:47:44;99464.06;;;10.20;79.78
31062;BME280;17724;53.546;9.974;2024-02-23T17:51:45;99452.97;;;10.35;80.10
31062;BME280;17724;53.546;9.974;2024-02-23T17:55:46;99460.25;;;10.50;80.60
31062;BME280;17724;53.546;9.974;2024-02-23T17:59:47;99457.50;;;10.50;79.02
31062;BME280;17724;53.546;9.974;2024-02-23T18:03:48;99433.34;;;10.47;79.28
31062;BME280;17724;53.546;9.974;2024-02-23T18:07:48;99466.59;;;10.74;79.89
31062;BME280;17724;53.546;9.974;2024-02-23T18:11:49;99478.56;;;10.59;77.17
31062;BME280;17724;53.546;9.974;2024-02-23T18:15:49;99486.47;;;10.66;76.44
31062;BME280;17724;53.546;9.974;2024-02-23T18:19:52;99486.09;;;10.73;76.09
31062;BME280;17724;53.546;9.974;2024-02-23T18:23:53;99480.66;;;10.68;74.39
31062;BME280;17724;53.546;9.974;2024-02-23T18:27:53;99480.19;;;10.60;70.31
31062;BME280;17724;53.546;9.974;2024-02-23T18:31:54;99491.44;;;10.64;69.21
31062;BME280;17724;53.546;9.974;2024-02-23T18:35:54;99497.13;;;10.97;69.79
31062;BME280;17724;53.546;9.974;2024-02-23T18:39:56;99474.34;;;10.67;68.16
31062;BME280;17724;53.546;9.974;2024-02-23T18:43:56;99489.00;;;10.87;67.04
31062;BME280;17724;53.546;9.974;2024-02-23T18:47:57;99483.84;;;11.04;66.79
31062;BME280;17724;53.546;9.974;2024-02-23T18:51:58;99511.00;;;10.87;64.76
31062;BME280;17724;53.546;9.974;2024-02-23T18:55:59;99501.88;;;10.91;66.24
31062;BME280;17724;53.546;9.974;2024-02-23T19:00:00;99498.78;;;10.74;66.78
31062;BME280;17724;53.546;9.974;2024-02-23T19:04:00;99500.06;;;10.81;66.20
31062;BME280;17724;53.546;9.974;2024-02-23T19:08:01;99510.84;;;10.73;67.60
31062;BME280;17724;53.546;9.974;2024-02-23T19:12:02;99507.41;;;10.62;67.24
31062;BME280;17724;53.546;9.974;2024-02-23T19:16:03;99508.09;;;10.73;67.27
31062;BME280;17724;53.546;9.974;2024-02-23T19:20:04;99505.72;;;10.66;67.93
31062;BME280;17724;53.546;9.974;2024-02-23T19:24:09;99496.66;;;10.66;69.60
31062;BME280;17724;53.546;9.974;2024-02-23T19:28:09;99507.16;;;10.58;67.44
31062;BME280;17724;53.546;9.974;2024-02-23T19:32:10;99514.25;;;10.65;67.88
31062;BME280;17724;53.546;9.974;2024-02-23T19:36:10;99516.91;;;10.46;68.56
31062;BME280;17724;53.546;9.974;2024-02-23T19:40:12;99517.00;;;10.65;68.96
31062;BME280;17724;53.546;9.974;2024-02-23T19:44:13;99522.88;;;10.53;68.79
31062;BME280;17724;53.546;9.974;2024-02-23T19:48:14;99523.09;;;10.62;69.30
31062;BME280;17724;53.546;9.974;2024-02-23T19:52:14;99525.28;;;10.59;69.45
31062;BME280;17724;53.546;9.974;2024-02-23T19:56:15;99529.28;;;10.43;69.72
31062;BME280;17724;53.546;9.974;2024-02-23T20:00:15;99528.19;;;10.44;69.85
31062;BME280;17724;53.546;9.974;2024-02-23T20:04:16;99520.22;;;10.43;71.36
31062;BME280;17724;53.546;9.974;2024-02-23T20:08:17;99536.41;;;10.49;72.43
31062;BME280;17724;53.546;9.974;2024-02-23T20:12:19;99551.72;;;10.55;71.64
31062;BME280;17724;53.546;9.974;2024-02-23T20:16:20;99555.91;;;10.48;70.94
31062;BME280;17724;53.546;9.974;2024-02-23T20:20:21;99551.94;;;10.30;70.83
31062;BME280;17724;53.546;9.974;2024-02-23T20:24:21;99553.47;;;10.07;72.97
31062;BME280;17724;53.546;9.974;2024-02-23T20:28:22;99507.97;;;9.91;72.85
31062;BME280;17724;53.546;9.974;2024-02-23T20:32:22;99545.97;;;10.18;73.94
31062;BME280;17724;53.546;9.974;2024-02-23T20:36:23;99552.91;;;10.10;72.78
31062;BME280;17724;53.546;9.974;2024-02-23T20:40:24;99556.88;;;9.88;74.58
31062;BME280;17724;53.546;9.974;2024-02-23T20:44:24;99558.03;;;9.77;74.94
31062;BME280;17724;53.546;9.974;2024-02-23T20:48:25;99562.69;;;9.77;75.66
31062;BME280;17724;53.546;9.974;2024-02-23T20:52:25;99565.28;;;9.58;76.44
31062;BME280;17724;53.546;9.974;2024-02-23T20:56:26;99559.78;;;9.58;77.67
31062;BME280;17724;53.546;9.974;2024-02-23T21:00:31;99542.03;;;9.40;77.93
31062;BME280;17724;53.546;9.974;2024-02-23T21:04:32;99568.03;;;9.53;77.28
31062;BME280;17724;53.546;9.974;2024-02-23T21:08:32;99577.38;;;9.52;76.95
31062;BME280;17724;53.546;9.974;2024-02-23T21:12:33;99579.66;;;9.34;77.70
31062;BME280;17724;53.546;9.974;2024-02-23T21:16:34;99592.88;;;9.22;77.63
31062;BME280;17724;53.546;9.974;2024-02-23T21:20:34;99575.06;;;9.04;78.91
31062;BME280;17724;53.546;9.974;2024-02-23T21:24:35;99594.25;;;9.09;78.64
31062;BME280;17724;53.546;9.974;2024-02-23T21:28:35;99595.88;;;9.21;77.62